Time;durP1;ratioP1;P1;durP2;ratioP2;P2;SDS_P1;SDS_P2;PMS_P1;PMS_P2;Temp;Humidity;BMP_temperature;BMP_pressure;BME280_temperature;BME280_humidity;BME280_pressure;Samples;Min_cycle;Max_cycle;Signal;HPM_P1;HPM_P2
2022/09/23 00:01:13;;;;;;;30.63;20.70;;;18.00;99.90;;;;;;4590600;19;20018;-35
2022/09/23 00:02:47;;;;;;;32.85;20.05;;;18.00;99.90;;;;;;4591104;19;20351;-35
2022/09/23 00:04:19;;;;;;;31.25;20.23;;;18.00;99.90;;;;;;4590366;19;20028;-35
2022/09/23 00:05:59;;;;;;;;;;;18.00;99.90;;;;;;4591041;19;20011;-35
2022/09/23 00:07:30;;;;;;;29.02;20.33;;;18.00;99.90;;;;;;4589896;19;19980;-35
2022/09/23 00:09:01;;;;;;;37.33;23.50;;;18.00;99.90;;;;;;4590812;19;20007;-35
2022/09/23 00:10:35;;;;;;;55.50;32.65;;;18.00;99.90;;;;;;4591448;19;20010;-35
2022/09/23 00:12:08;;;;;;;81.68;43.30;;;18.00;99.90;;;;;;4590589;19;20010;-35
2022/09/23 00:13:41;;;;;;;76.93;44.17;;;18.00;99.90;;;;;;4590760;19;20043;-35
2022/09/23 00:15:13;;;;;;;69.78;41.63;;;17.90;99.90;;;;;;4591335;19;20517;-35
2022/09/23 00:16:44;;;;;;;62.00;37.75;;;18.00;99.90;;;;;;4590817;19;20025;-35
2022/09/23 00:18:16;;;;;;;54.38;34.50;;;18.00;99.90;;;;;;4591588;19;20031;-35
2022/09/23 00:19:48;;;;;;;53.40;32.85;;;17.90;99.90;;;;;;4590680;19;20507;-35
2022/09/23 00:21:19;;;;;;;42.00;27.70;;;17.90;99.90;;;;;;4591202;19;20028;-35
2022/09/23 00:22:50;;;;;;;;;;;18.00;99.90;;;;;;4590892;19;20006;-35
2022/09/23 00:24:22;;;;;;;41.83;28.23;;;17.90;99.90;;;;;;4589872;19;19949;-35
2022/09/23 00:26:00;;;;;;;;;;;17.90;99.90;;;;;;4591043;19;20498;-35
2022/09/23 00:27:32;;;;;;;43.97;28.10;;;17.90;99.90;;;;;;4590463;19;19929;-35
2022/09/23 00:29:03;;;;;;;41.20;26.80;;;17.90;99.90;;;;;;4590799;19;20035;-36
2022/09/23 00:30:35;;;;;;;35.70;25.50;;;17.90;99.90;;;;;;4590939;19;20015;-35
2022/09/23 00:32:06;;;;;;;34.25;24.67;;;17.90;99.90;;;;;;4590138;19;20011;-35
2022/09/23 00:33:37;;;;;;;38.28;27.60;;;17.90;99.90;;;;;;4591169;19;20018;-35
2022/09/23 00:35:09;;;;;;;37.75;27.33;;;17.90;99.90;;;;;;4590892;19;20507;-35
2022/09/23 00:36:41;;;;;;;42.22;27.30;;;17.90;99.90;;;;;;4589446;19;20014;-35
2022/09/23 00:38:13;;;;;;;40.17;25.63;;;17.90;99.90;;;;;;4589480;19;20070;-35
2022/09/23 00:39:46;;;;;;;48.50;28.38;;;17.90;99.90;;;;;;4589306;19;20040;-35
2022/09/23 00:41:18;;;;;;;49.60;31.40;;;17.90;99.90;;;;;;4590983;19;20021;-35
2022/09/23 00:42:50;;;;;;;40.88;26.83;;;17.90;99.90;;;;;;4590227;19;20014;-35
2022/09/23 00:44:40;;;;;;;38.67;24.17;;;17.90;99.90;;;;;;4590671;19;20003;-35
2022/09/23 00:46:25;;;;;;;36.75;23.27;;;17.90;99.90;;;;;;4590922;19;20027;-35
2022/09/23 00:48:00;;;;;;;36.03;22.00;;;17.90;99.90;;;;;;4590944;19;19994;-35
2022/09/23 00:49:31;;;;;;;40.05;25.10;;;17.90;99.90;;;;;;4589609;19;20036;-35
2022/09/23 00:51:02;;;;;;;58.05;35.03;;;17.90;99.90;;;;;;4589168;19;20007;-35
2022/09/23 00:52:33;;;;;;;62.42;38.72;;;17.90;99.90;;;;;;4588333;19;20078;-35
2022/09/23 00:54:05;;;;;;;66.32;41.65;;;17.90;99.90;;;;;;4589093;19;20028;-35
2022/09/23 00:55:41;;;;;;;54.13;34.72;;;17.90;99.90;;;;;;4590342;19;20002;-35
2022/09/23 00:57:14;;;;;;;38.03;26.25;;;17.90;99.90;;;;;;4589044;19;20010;-35
2022/09/23 00:58:45;;;;;;;52.88;33.33;;;17.90;99.90;;;;;;4589233;19;20070;-35
2022/09/23 01:00:16;;;;;;;55.25;31.90;;;17.90;99.90;;;;;;4589362;19;20024;-35
2022/09/23 01:01:48;;;;;;;65.30;38.88;;;17.90;99.90;;;;;;4589653;19;20099;-35
2022/09/23 01:03:21;;;;;;;67.45;39.45;;;17.90;99.90;;;;;;4588947;19;20018;-35
2022/09/23 01:04:52;;;;;;;56.60;33.92;;;17.90;99.90;;;;;;4589650;19;20340;-35
2022/09/23 01:06:23;;;;;;;42.97;26.60;;;17.90;99.90;;;;;;4590675;19;20007;-35
2022/09/23 01:07:56;;;;;;;49.28;27.33;;;17.90;99.90;;;;;;4590744;19;20010;-35
2022/09/23 01:09:27;;;;;;;48.35;28.40;;;17.90;99.90;;;;;;4593810;19;20076;-35
2022/09/23 01:10:58;;;;;;;45.90;27.48;;;17.90;99.90;;;;;;4594887;19;20014;-35
2022/09/23 01:12:54;;;;;;;42.63;26.15;;;17.80;99.90;;;;;;4593860;19;20443;-35
2022/09/23 01:14:46;;;;;;;42.90;27.63;;;17.90;99.90;;;;;;4593547;19;20367;-35
2022/09/23 01:16:32;;;;;;;43.00;24.38;;;17.90;99.90;;;;;;4594412;19;20025;-35
2022/09/23 01:18:31;;;;;;;40.30;24.23;;;17.90;99.90;;;;;;4594405;19;20021;-35
2022/09/23 01:20:43;;;;;;;44.10;29.35;;;17.90;99.90;;;;;;4594664;19;20036;-35
2022/09/23 01:22:27;;;;;;;46.03;29.85;;;17.90;99.90;;;;;;4592437;19;20418;-35
2022/09/23 01:24:17;;;;;;;43.58;29.20;;;17.90;99.90;;;;;;4592073;19;20019;-35
2022/09/23 01:26:29;;;;;;;42.65;28.98;;;17.80;99.90;;;;;;4592486;19;20491;-35
2022/09/23 01:28:36;;;;;;;43.63;30.50;;;17.80;99.90;;;;;;4592277;19;20018;-35
2022/09/23 01:30:17;;;;;;;43.35;27.95;;;17.80;99.90;;;;;;4592818;19;20015;-35
2022/09/23 01:31:57;;;;;;;40.03;26.80;;;17.80;99.90;;;;;;4591974;19;20001;-35
2022/09/23 01:33:53;;;;;;;40.20;26.27;;;17.80;99.90;;;;;;4592467;19;20021;-35
2022/09/23 01:35:29;;;;;;;35.17;23.33;;;17.80;99.90;;;;;;4591998;19;20489;-35
2022/09/23 01:37:15;;;;;;;28.50;18.60;;;17.80;99.90;;;;;;4591949;19;20521;-35
2022/09/23 01:38:52;;;;;;;20.95;14.48;;;17.90;99.90;;;;;;4591125;19;20345;-35
2022/09/23 01:40:28;;;;;;;26.30;14.13;;;17.80;99.90;;;;;;4589913;19;20061;-35
2022/09/23 01:42:25;;;;;;;21.25;14.63;;;17.90;99.90;;;;;;4592067;19;20039;-35
2022/09/23 01:44:37;;;;;;;25.50;17.25;;;17.90;99.90;;;;;;4592312;19;20066;-35
2022/09/23 01:46:19;;;;;;;28.05;19.08;;;17.90;99.90;;;;;;4592572;19;20002;-35
2022/09/23 01:47:55;;;;;;;41.72;25.25;;;17.90;99.90;;;;;;4591777;19;20030;-35
2022/09/23 01:49:37;;;;;;;34.22;22.98;;;17.80;99.90;;;;;;4591430;19;20014;-35
2022/09/23 01:51:12;;;;;;;28.65;19.50;;;17.80;99.90;;;;;;4591542;19;20010;-35
2022/09/23 01:52:44;;;;;;;30.13;19.55;;;17.80;99.90;;;;;;4589905;19;20006;-35
2022/09/23 01:54:19;;;;;;;30.08;19.65;;;17.80;99.90;;;;;;4591506;19;20016;-34
2022/09/23 01:55:56;;;;;;;28.25;19.13;;;17.80;99.90;;;;;;4591167;19;20011;-35
2022/09/23 01:57:32;;;;;;;27.58;18.52;;;17.90;99.90;;;;;;4592490;19;20364;-35
2022/09/23 01:59:13;;;;;;;32.55;23.08;;;17.90;99.90;;;;;;4593106;19;20011;-34
2022/09/23 02:00:58;;;;;;;54.03;35.08;;;17.90;99.90;;;;;;4593291;19;20031;-34
2022/09/23 02:02:32;;;;;;;50.00;33.45;;;18.00;99.90;;;;;;4593066;19;20057;-34
2022/09/23 02:04:10;;;;;;;42.95;28.17;;;18.10;99.90;;;;;;4592426;19;20479;-35
2022/09/23 02:05:46;;;;;;;47.08;31.15;;;18.10;99.90;;;;;;4592639;19;20014;-34
2022/09/23 02:07:27;;;;;;;56.00;38.05;;;18.20;99.90;;;;;;4592345;19;20019;-34
2022/09/23 02:09:00;;;;;;;56.00;37.13;;;18.20;99.90;;;;;;4592847;19;20002;-34
2022/09/23 02:10:40;;;;;;;57.08;36.15;;;18.30;99.90;;;;;;4591000;19;20959;-34
2022/09/23 02:12:14;;;;;;;57.35;38.17;;;18.30;99.90;;;;;;4590260;19;20036;-35
2022/09/23 02:13:48;;;;;;;69.50;41.13;;;18.40;99.90;;;;;;4591687;19;20074;-35
2022/09/23 02:15:21;;;;;;;75.13;45.15;;;18.40;99.90;;;;;;4591288;19;20073;-34
2022/09/23 02:16:54;;;;;;;87.97;51.83;;;18.40;99.90;;;;;;4591390;19;20009;-35
2022/09/23 02:18:28;;;;;;;68.32;42.25;;;18.40;99.90;;;;;;4591041;19;20049;-35
2022/09/23 02:20:02;;;;;;;36.40;28.30;;;18.40;99.90;;;;;;4589825;19;20022;-35
2022/09/23 02:21:35;;;;;;;29.67;20.63;;;18.40;99.90;;;;;;4591334;19;20011;-35
2022/09/23 02:23:07;;;;;;;36.08;24.90;;;18.40;99.90;;;;;;4591478;19;20033;-35
2022/09/23 02:24:38;;;;;;;48.80;31.50;;;18.40;99.90;;;;;;4591176;19;20018;-35
2022/09/23 02:26:10;;;;;;;;;;;18.40;99.90;;;;;;4592008;19;20014;-35
2022/09/23 02:28:18;;;;;;;41.85;26.88;;;18.40;99.90;;;;;;4591887;19;20342;-35
2022/09/23 02:30:02;;;;;;;37.10;25.08;;;18.40;99.90;;;;;;4590435;19;20352;-35
2022/09/23 02:31:47;;;;;;;31.40;21.02;;;18.30;99.90;;;;;;4590500;19;20092;-35
2022/09/23 02:33:32;;;;;;;34.35;21.50;;;18.30;99.90;;;;;;4590863;19;20018;-35
2022/09/23 02:35:31;;;;;;;44.58;26.92;;;18.30;99.90;;;;;;4590793;19;20555;-35
2022/09/23 02:37:12;;;;;;;45.30;26.90;;;18.30;99.90;;;;;;4590876;19;20025;-35
2022/09/23 02:38:45;;;;;;;43.92;28.13;;;18.30;99.90;;;;;;4590371;19;20018;-35
2022/09/23 02:40:24;;;;;;;44.83;26.83;;;18.30;99.90;;;;;;4589641;19;20017;-35
2022/09/23 02:42:03;;;;;;;51.65;31.85;;;18.30;99.90;;;;;;4591557;19;20011;-35
2022/09/23 02:43:44;;;;;;;60.22;34.42;;;18.30;99.90;;;;;;4591767;19;20027;-35
2022/09/23 02:45:15;;;;;;;61.58;36.90;;;18.20;99.90;;;;;;4591793;19;20043;-35
2022/09/23 02:46:49;;;;;;;47.17;34.38;;;18.20;99.90;;;;;;4591717;19;20010;-35
2022/09/23 02:48:22;;;;;;;47.28;33.80;;;18.20;99.90;;;;;;4592581;19;20014;-35
2022/09/23 02:49:55;;;;;;;52.03;34.13;;;18.20;99.90;;;;;;4591589;19;20010;-35
2022/09/23 02:51:27;;;;;;;52.03;34.10;;;18.20;99.90;;;;;;4592325;19;20476;-35
2022/09/23 02:52:59;;;;;;;55.70;33.88;;;18.20;99.90;;;;;;4591480;19;20379;-35
2022/09/23 02:54:32;;;;;;;53.83;33.25;;;18.20;99.90;;;;;;4591636;19;20015;-35
2022/09/23 02:56:18;;;;;;;53.17;30.88;;;18.20;99.90;;;;;;4591198;19;20003;-35
2022/09/23 02:57:49;;;;;;;51.47;31.95;;;18.20;99.90;;;;;;4592078;19;20007;-35
2022/09/23 02:59:21;;;;;;;51.20;30.90;;;18.20;99.90;;;;;;4593260;19;20022;-35
2022/09/23 03:01:10;;;;;;;56.42;31.75;;;18.20;99.90;;;;;;4591800;19;20042;-35
2022/09/23 03:02:41;;;;;;;53.17;30.60;;;18.20;99.90;;;;;;4591713;19;20010;-34
2022/09/23 03:04:37;;;;;;;48.97;30.77;;;18.20;99.90;;;;;;4591629;19;20021;-35
2022/09/23 03:06:35;;;;;;;51.47;32.92;;;18.10;99.90;;;;;;4591185;19;20022;-35
2022/09/23 03:08:38;;;;;;;49.85;31.02;;;18.10;99.90;;;;;;4590479;19;20523;-35
2022/09/23 03:10:23;;;;;;;42.42;25.48;;;18.10;99.90;;;;;;4590462;19;20523;-35
2022/09/23 03:12:05;;;;;;;38.90;23.27;;;18.10;99.90;;;;;;4590002;19;20014;-35
2022/09/23 03:13:58;;;;;;;37.05;21.38;;;18.10;99.90;;;;;;4589818;19;20027;-35
2022/09/23 03:16:00;;;;;;;36.50;19.48;;;18.10;99.90;;;;;;4590749;19;20006;-35
2022/09/23 03:17:37;;;;;;;27.00;17.35;;;18.10;99.90;;;;;;4589956;19;20085;-35
2022/09/23 03:19:23;;;;;;;29.73;17.52;;;18.10;99.90;;;;;;4589746;19;20011;-35
2022/09/23 03:21:00;;;;;;;28.45;16.55;;;18.10;99.90;;;;;;4589824;19;20017;-35
2022/09/23 03:22:39;;;;;;;25.27;16.30;;;18.10;99.90;;;;;;4589807;19;20007;-35
2022/09/23 03:24:13;;;;;;;28.80;16.42;;;18.10;99.90;;;;;;4589632;19;20014;-35
2022/09/23 03:25:45;;;;;;;26.00;17.05;;;18.10;99.90;;;;;;4589849;19;20014;-34
2022/09/23 03:27:19;;;;;;;23.45;15.15;;;18.10;99.90;;;;;;4589707;19;20013;-35
2022/09/23 03:28:50;;;;;;;24.52;15.50;;;18.10;99.90;;;;;;4589731;19;20024;-35
2022/09/23 03:30:21;;;;;;;26.98;17.30;;;18.10;99.90;;;;;;4590045;19;20469;-35
2022/09/23 03:31:52;;;;;;;23.42;13.40;;;18.10;99.90;;;;;;4586677;19;20014;-35
2022/09/23 03:33:26;;;;;;;22.92;14.95;;;18.10;99.90;;;;;;4589728;19;20533;-35
2022/09/23 03:34:58;;;;;;;23.90;14.13;;;18.10;99.90;;;;;;4589943;19;20022;-35
2022/09/23 03:36:52;;;;;;;23.73;13.45;;;18.00;99.90;;;;;;4590177;19;20031;-35
2022/09/23 03:38:24;;;;;;;21.98;13.10;;;18.00;99.90;;;;;;4590049;19;20005;-35
2022/09/23 03:40:21;;;;;;;20.77;13.32;;;18.10;99.90;;;;;;4588144;19;20011;-35
2022/09/23 03:41:52;;;;;;;29.73;19.50;;;18.00;99.90;;;;;;4589296;19;20014;-35
2022/09/23 03:43:23;;;;;;;45.88;26.17;;;18.00;99.90;;;;;;4589578;19;20325;-35
2022/09/23 03:44:56;;;;;;;44.38;28.90;;;18.00;99.90;;;;;;4589996;19;20379;-35
2022/09/23 03:46:28;;;;;;;49.58;30.35;;;18.00;99.90;;;;;;4589862;19;20031;-35
2022/09/23 03:48:00;;;;;;;45.20;26.40;;;18.00;99.90;;;;;;4591296;19;20015;-35
2022/09/23 03:49:36;;;;;;;46.92;27.23;;;18.00;99.90;;;;;;4590690;19;20463;-35
2022/09/23 03:51:21;;;;;;;41.42;23.45;;;18.00;99.90;;;;;;4590203;19;20378;-35
2022/09/23 03:52:52;;;;;;;28.80;17.02;;;18.00;99.90;;;;;;4589286;19;20017;-35
2022/09/23 03:54:24;;;;;;;26.33;16.63;;;18.00;99.90;;;;;;4591071;19;20014;-35
2022/09/23 03:55:54;;;;;;;;;;;18.00;99.90;;;;;;4591238;19;20038;-35
2022/09/23 03:57:25;;;;;;;23.08;14.80;;;18.00;99.90;;;;;;4590426;19;19918;-35
2022/09/23 03:58:56;;;;;;;22.65;14.70;;;18.00;99.90;;;;;;4589943;19;20017;-35
2022/09/23 04:00:28;;;;;;;25.23;16.23;;;18.00;99.90;;;;;;4590637;19;20023;-34
2022/09/23 04:01:59;;;;;;;33.63;19.67;;;18.00;99.90;;;;;;4591323;19;20463;-34
2022/09/23 04:03:30;;;;;;;41.83;23.92;;;18.00;99.90;;;;;;4591295;19;20078;-35
2022/09/23 04:05:01;;;;;;;39.65;24.38;;;18.00;99.90;;;;;;4593244;19;20016;-35
2022/09/23 04:06:33;;;;;;;41.83;26.50;;;18.00;99.90;;;;;;4591427;19;20037;-35
2022/09/23 04:08:04;;;;;;;35.08;23.65;;;18.10;99.90;;;;;;4588947;19;20018;-35
2022/09/23 04:09:35;;;;;;;29.73;21.00;;;18.10;99.90;;;;;;4590348;19;20022;-35
2022/09/23 04:11:10;;;;;;;26.92;16.73;;;18.10;99.90;;;;;;4590251;19;20343;-36
2022/09/23 04:12:52;;;;;;;24.52;15.48;;;18.20;99.90;;;;;;4588630;19;20037;-35
2022/09/23 04:14:23;;;;;;;25.33;15.57;;;18.10;99.90;;;;;;4590558;19;20011;-35
2022/09/23 04:15:55;;;;;;;24.38;17.20;;;18.10;99.90;;;;;;4590692;19;20022;-35
2022/09/23 04:17:26;;;;;;;24.55;17.80;;;18.10;99.80;;;;;;4591714;19;20014;-35
2022/09/23 04:18:57;;;;;;;25.80;15.43;;;18.10;99.90;;;;;;4591149;19;20074;-35
2022/09/23 04:20:29;;;;;;;23.00;14.80;;;18.10;99.70;;;;;;4591897;19;20014;-35
2022/09/23 04:22:00;;;;;;;25.00;15.20;;;18.10;99.70;;;;;;4590879;19;20022;-35
2022/09/23 04:23:32;;;;;;;25.38;14.93;;;18.10;99.60;;;;;;4589598;19;20032;-35
2022/09/23 04:25:05;;;;;;;22.80;12.07;;;18.10;99.50;;;;;;4591632;19;20050;-35
2022/09/23 04:26:37;;;;;;;26.20;12.82;;;18.10;99.50;;;;;;4588846;19;20463;-35
2022/09/23 04:28:08;;;;;;;;;;;18.10;99.50;;;;;;4590871;19;20022;-35
2022/09/23 04:29:39;;;;;;;27.00;14.80;;;18.10;99.50;;;;;;4589528;19;19983;-35
2022/09/23 04:31:10;;;;;;;23.67;14.70;;;18.10;99.40;;;;;;4589391;19;20011;-34
2022/09/23 04:32:41;;;;;;;27.48;15.68;;;18.10;99.40;;;;;;4589193;19;20519;-34
2022/09/23 04:34:14;;;;;;;26.88;15.00;;;18.00;99.40;;;;;;4590536;19;20015;-35
2022/09/23 04:35:48;;;;;;;21.67;14.05;;;18.00;99.60;;;;;;4591120;19;20355;-35
2022/09/23 04:37:19;;;;;;;26.52;16.75;;;18.00;99.70;;;;;;4588858;19;20437;-35
2022/09/23 04:38:51;;;;;;;22.85;15.07;;;18.00;99.80;;;;;;4589974;19;20014;-35
2022/09/23 04:40:22;;;;;;;24.58;15.57;;;18.00;99.80;;;;;;4589614;19;20010;-34
2022/09/23 04:41:53;;;;;;;33.53;19.00;;;18.10;99.80;;;;;;4591330;19;20014;-35
2022/09/23 04:43:24;;;;;;;32.15;19.77;;;18.10;99.70;;;;;;4589576;19;20022;-35
2022/09/23 04:44:56;;;;;;;34.85;21.73;;;18.10;99.70;;;;;;4589283;19;20456;-35
2022/09/23 04:46:27;;;;;;;38.78;25.80;;;18.20;99.60;;;;;;4590722;19;20006;-34
2022/09/23 04:47:59;;;;;;;33.30;23.30;;;18.30;99.60;;;;;;4590152;19;20035;-35
2022/09/23 04:49:32;;;;;;;30.40;21.40;;;18.30;99.60;;;;;;4589297;19;20018;-35
2022/09/23 04:51:03;;;;;;;31.20;22.27;;;18.30;99.80;;;;;;4590132;19;20019;-34
2022/09/23 04:52:37;;;;;;;29.33;18.95;;;18.30;99.50;;;;;;4587895;19;20022;-34
2022/09/23 04:54:11;;;;;;;23.42;14.90;;;18.30;99.50;;;;;;4590771;19;20014;-35
2022/09/23 04:55:42;;;;;;;25.52;16.65;;;18.30;99.40;;;;;;4589343;19;20352;-36
2022/09/23 04:57:13;;;;;;;24.75;16.38;;;18.40;99.40;;;;;;4590952;19;20392;-35
2022/09/23 04:58:48;;;;;;;29.75;18.52;;;18.40;99.40;;;;;;4590483;19;20019;-35
2022/09/23 05:00:19;;;;;;;27.92;19.85;;;18.40;99.40;;;;;;4589667;19;20105;-35
2022/09/23 05:01:50;;;;;;;25.50;16.88;;;18.30;99.30;;;;;;4589747;19;20103;-35
2022/09/23 05:03:22;;;;;;;23.77;16.13;;;18.40;99.40;;;;;;4586178;19;20375;-35
2022/09/23 05:04:54;;;;;;;24.13;16.10;;;18.30;99.30;;;;;;4590057;19;20040;-35
2022/09/23 05:06:25;;;;;;;20.35;14.80;;;18.30;99.30;;;;;;4590160;19;20050;-36
2022/09/23 05:07:56;;;;;;;18.75;12.95;;;18.30;99.30;;;;;;4591035;19;20015;-34
2022/09/23 05:09:27;;;;;;;20.98;14.73;;;18.30;99.30;;;;;;4589859;19;20813;-34
2022/09/23 05:10:59;;;;;;;25.48;19.17;;;18.30;99.40;;;;;;4590518;19;20006;-33
2022/09/23 05:12:30;;;;;;;24.55;19.40;;;18.30;99.40;;;;;;4587169;19;20014;-34
2022/09/23 05:14:02;;;;;;;19.83;14.10;;;18.30;99.40;;;;;;4588425;19;20022;-33
2022/09/23 05:15:33;;;;;;;17.13;11.70;;;18.30;99.50;;;;;;4590606;19;20025;-33
2022/09/23 05:17:05;;;;;;;20.02;13.30;;;18.30;99.50;;;;;;4588171;19;20136;-33
2022/09/23 05:18:39;;;;;;;18.25;12.65;;;18.20;99.40;;;;;;4590641;19;20014;-32
2022/09/23 05:20:12;;;;;;;18.27;13.40;;;18.20;99.50;;;;;;4590396;19;20018;-33
2022/09/23 05:21:43;;;;;;;;;;;18.20;99.50;;;;;;4591644;19;20010;-34
2022/09/23 05:23:15;;;;;;;20.00;13.25;;;18.20;99.60;;;;;;4589662;19;19922;-34
2022/09/23 05:24:46;;;;;;;;;;;18.20;99.50;;;;;;4590650;19;20011;-34
2022/09/23 05:26:17;;;;;;;14.73;9.80;;;18.20;99.50;;;;;;4590526;19;20256;-34
2022/09/23 05:27:48;;;;;;;17.63;10.68;;;18.20;99.50;;;;;;4588976;19;20024;-34
2022/09/23 05:29:20;;;;;;;12.18;9.05;;;18.30;99.40;;;;;;4590630;19;20015;-33
2022/09/23 05:30:51;;;;;;;10.82;7.90;;;18.30;99.40;;;;;;4588643;19;20022;-34
2022/09/23 05:32:22;;;;;;;19.73;13.80;;;18.40;99.40;;;;;;4589039;19;20014;-34
2022/09/23 05:34:11;;;;;;;14.60;10.65;;;18.30;99.40;;;;;;4589735;19;20344;-34
2022/09/23 05:35:46;;;;;;;15.48;10.35;;;18.30;99.40;;;;;;4587670;19;20011;-34
2022/09/23 05:37:17;;;;;;;15.98;10.88;;;18.30;99.50;;;;;;4590074;19;20081;-33
2022/09/23 05:38:49;;;;;;;14.07;9.57;;;18.30;99.50;;;;;;4589070;19;20023;-33
2022/09/23 05:40:20;;;;;;;11.48;7.78;;;18.20;99.50;;;;;;4587774;19;20110;-34
2022/09/23 05:41:52;;;;;;;20.25;13.82;;;18.20;99.60;;;;;;4588958;19;20082;-34
2022/09/23 05:43:24;;;;;;;23.17;14.43;;;18.10;99.60;;;;;;4589646;19;20017;-34
2022/09/23 05:44:55;;;;;;;19.08;13.20;;;18.10;99.70;;;;;;4588127;19;20022;-34
2022/09/23 05:46:33;;;;;;;13.43;11.57;;;18.10;99.70;;;;;;4589238;19;20047;-34
2022/09/23 05:48:05;;;;;;;12.88;10.20;;;18.00;99.80;;;;;;4588295;19;20045;-34
2022/09/23 05:49:36;;;;;;;17.02;11.60;;;18.00;99.80;;;;;;4588667;19;20010;-34
2022/09/23 05:51:11;;;;;;;19.98;12.52;;;17.90;99.70;;;;;;4588868;19;20011;-34
2022/09/23 05:52:42;;;;;;;18.70;13.00;;;18.00;99.80;;;;;;4587954;19;20551;-34
2022/09/23 05:54:13;;;;;;;17.10;10.48;;;18.00;99.80;;;;;;4588119;19;20444;-34
2022/09/23 05:55:45;;;;;;;14.77;10.18;;;18.00;99.80;;;;;;4593718;19;20017;-34
2022/09/23 05:57:17;;;;;;;12.82;9.27;;;18.10;99.90;;;;;;4592665;19;20073;-34
2022/09/23 05:58:49;;;;;;;15.38;10.05;;;18.10;99.90;;;;;;4593322;19;20059;-34
2022/09/23 06:00:20;;;;;;;10.40;7.60;;;18.20;99.90;;;;;;4592454;19;20010;-34
2022/09/23 06:01:51;;;;;;;10.43;7.60;;;18.20;99.80;;;;;;4592848;19;20070;-34
2022/09/23 06:03:23;;;;;;;13.30;8.80;;;18.30;99.80;;;;;;4593280;19;20018;-35
2022/09/23 06:04:54;;;;;;;12.77;9.27;;;18.30;99.80;;;;;;4593677;19;20062;-34
2022/09/23 06:06:27;;;;;;;12.38;10.50;;;18.30;99.70;;;;;;4593372;19;20015;-34
2022/09/23 06:07:58;;;;;;;13.20;10.88;;;18.30;99.70;;;;;;4593416;19;20014;-34
2022/09/23 06:09:30;;;;;;;;;;;18.30;99.70;;;;;;4594640;19;20010;-33
2022/09/23 06:11:08;;;;;;;14.80;12.98;;;18.30;99.70;;;;;;4593921;19;20349;-34
2022/09/23 06:12:41;;;;;;;16.65;12.40;;;18.30;99.90;;;;;;4592994;19;20006;-33
2022/09/23 06:14:13;;;;;;;13.95;12.32;;;18.30;99.90;;;;;;4593364;19;20013;-34
2022/09/23 06:15:45;;;;;;;14.85;12.07;;;18.20;99.90;;;;;;4592348;19;20080;-34
2022/09/23 06:17:16;;;;;;;16.75;13.40;;;18.20;99.90;;;;;;4593149;19;20062;-34
2022/09/23 06:18:47;;;;;;;15.93;12.20;;;18.10;99.90;;;;;;4593681;19;20027;-34
2022/09/23 06:20:18;;;;;;;14.85;12.15;;;18.10;99.90;;;;;;4593138;19;20018;-34
2022/09/23 06:21:49;;;;;;;14.13;10.52;;;18.10;99.90;;;;;;4593275;19;20084;-34
2022/09/23 06:23:21;;;;;;;12.48;10.73;;;18.10;99.90;;;;;;4593396;19;20066;-34
2022/09/23 06:24:52;;;;;;;13.15;10.18;;;18.10;99.90;;;;;;4593566;19;20018;-34
2022/09/23 06:26:23;;;;;;;11.88;10.27;;;18.10;99.90;;;;;;4593224;19;20014;-34
2022/09/23 06:27:54;;;;;;;15.10;11.32;;;18.00;99.90;;;;;;4593771;19;20097;-34
2022/09/23 06:29:25;;;;;;;15.55;10.40;;;18.00;99.90;;;;;;4594096;19;19999;-34
2022/09/23 06:30:58;;;;;;;13.52;10.73;;;18.10;99.90;;;;;;4593202;19;20011;-34
2022/09/23 06:32:32;;;;;;;13.98;9.48;;;18.10;99.90;;;;;;4592262;19;20011;-34
2022/09/23 06:34:03;;;;;;;;;;;18.20;99.90;;;;;;4592862;19;20019;-34
2022/09/23 06:35:36;;;;;;;20.45;10.15;;;18.20;99.90;;;;;;4593475;19;19950;-34
2022/09/23 06:37:07;;;;;;;16.05;9.43;;;18.20;99.90;;;;;;4593006;19;20006;-34
2022/09/23 06:38:39;;;;;;;15.57;10.70;;;18.20;99.90;;;;;;4592424;19;20475;-34
2022/09/23 06:40:13;;;;;;;13.20;9.90;;;18.20;99.90;;;;;;4588936;19;20021;-34
2022/09/23 06:41:44;;;;;;;11.88;8.95;;;18.20;99.90;;;;;;4592524;19;20011;-34
2022/09/23 06:43:15;;;;;;;11.35;8.40;;;18.20;99.90;;;;;;4592851;19;20026;-34
2022/09/23 06:44:46;;;;;;;15.10;9.43;;;18.20;99.90;;;;;;4593202;19;20035;-34
2022/09/23 06:46:19;;;;;;;11.48;7.68;;;18.20;99.90;;;;;;4592081;19;20070;-34
2022/09/23 06:47:55;;;;;;;11.13;8.02;;;18.20;99.90;;;;;;4592010;19;20005;-34
2022/09/23 06:49:26;;;;;;;11.05;7.80;;;18.20;99.90;;;;;;4592373;19;20011;-34
2022/09/23 06:50:58;;;;;;;12.10;8.10;;;18.20;99.90;;;;;;4592884;19;20020;-34
2022/09/23 06:52:29;;;;;;;14.52;8.02;;;18.20;99.90;;;;;;4590620;19;20018;-34
2022/09/23 06:54:00;;;;;;;9.43;6.85;;;18.30;99.90;;;;;;4592842;19;20469;-34
2022/09/23 06:55:31;;;;;;;12.25;8.63;;;18.30;99.90;;;;;;4592820;19;20428;-34
2022/09/23 06:57:03;;;;;;;12.07;8.40;;;18.30;99.90;;;;;;4592634;19;20348;-34
2022/09/23 06:58:37;;;;;;;11.80;7.80;;;18.30;99.90;;;;;;4592648;19;20014;-34
2022/09/23 07:00:10;;;;;;;13.95;7.75;;;18.30;99.90;;;;;;4593499;19;20347;-34
2022/09/23 07:01:44;;;;;;;10.27;7.53;;;18.30;99.90;;;;;;4592891;19;20014;-34
2022/09/23 07:03:18;;;;;;;10.82;7.32;;;18.30;99.90;;;;;;4591377;19;20466;-34
2022/09/23 07:04:50;;;;;;;11.75;6.93;;;18.30;99.90;;;;;;4592201;19;20014;-34
2022/09/23 07:06:21;;;;;;;10.05;7.20;;;18.40;99.90;;;;;;4592075;19;20025;-34
2022/09/23 07:07:53;;;;;;;12.10;8.57;;;18.40;99.90;;;;;;4592537;19;20010;-33
2022/09/23 07:09:26;;;;;;;10.63;6.65;;;18.40;99.90;;;;;;4591787;19;20015;-33
2022/09/23 07:11:00;;;;;;;12.20;7.35;;;18.40;99.90;;;;;;4592108;19;20368;-34
2022/09/23 07:12:32;;;;;;;11.45;6.90;;;18.40;99.90;;;;;;4591165;19;20416;-34
2022/09/23 07:14:05;;;;;;;12.80;7.68;;;18.50;99.90;;;;;;4592178;19;20027;-33
2022/09/23 07:15:36;;;;;;;9.80;8.13;;;18.50;99.90;;;;;;4592017;19;20510;-33
2022/09/23 07:17:08;;;;;;;11.07;9.52;;;17.40;99.90;;;;;;4592206;19;20471;-34
2022/09/23 07:18:40;;;;;;;11.32;10.00;;;15.70;99.90;;;;;;4590621;19;20011;-34
2022/09/23 07:20:12;;;;;;;12.33;11.03;;;14.90;99.90;;;;;;4590899;19;20022;-34
2022/09/23 07:21:43;;;;;;;11.57;9.15;;;14.50;99.90;;;;;;4591639;19;20462;-34
2022/09/23 07:23:17;;;;;;;10.93;8.98;;;14.30;99.90;;;;;;4592978;19;20018;-34
2022/09/23 07:24:58;;;;;;;9.80;8.50;;;14.20;99.90;;;;;;4592454;19;20011;-34
2022/09/23 07:26:46;;;;;;;11.60;9.13;;;14.20;99.90;;;;;;4591857;19;20014;-34
2022/09/23 07:28:43;;;;;;;11.50;8.40;;;14.20;99.90;;;;;;4592674;19;20073;-34
2022/09/23 07:30:16;;;;;;;10.90;8.40;;;14.10;99.90;;;;;;4590403;19;20379;-34
2022/09/23 07:31:49;;;;;;;12.50;8.50;;;14.20;99.90;;;;;;4591838;19;20007;-34
2022/09/23 07:33:20;;;;;;;9.13;7.18;;;14.10;99.90;;;;;;4592093;19;20019;-35
2022/09/23 07:34:52;;;;;;;11.20;8.05;;;14.10;99.90;;;;;;4590944;19;20010;-35
2022/09/23 07:36:23;;;;;;;;;;;14.10;99.90;;;;;;4593182;19;20010;-35
2022/09/23 07:37:54;;;;;;;11.50;7.93;;;14.10;99.90;;;;;;4591982;19;19932;-35
2022/09/23 07:39:26;;;;;;;9.35;7.18;;;14.10;99.90;;;;;;4590185;19;20014;-34
2022/09/23 07:41:01;;;;;;;9.65;7.45;;;14.10;99.90;;;;;;4591232;19;20352;-35
2022/09/23 07:42:32;;;;;;;10.60;6.77;;;14.10;99.90;;;;;;4589914;19;20014;-35
2022/09/23 07:44:04;;;;;;;9.40;7.13;;;14.10;99.90;;;;;;4590252;19;20025;-35
2022/09/23 07:45:37;;;;;;;6.57;5.40;;;14.10;99.90;;;;;;4590150;19;20018;-35
2022/09/23 07:47:08;;;;;;;6.80;5.23;;;14.20;99.90;;;;;;4590052;19;20012;-35
2022/09/23 07:48:39;;;;;;;6.05;4.72;;;14.20;99.90;;;;;;4590090;19;20025;-35
2022/09/23 07:50:11;;;;;;;7.97;5.35;;;14.20;99.90;;;;;;4592856;19;20015;-35
2022/09/23 07:51:45;;;;;;;7.13;5.63;;;14.20;99.90;;;;;;4590854;19;20055;-35
2022/09/23 07:53:16;;;;;;;7.57;6.13;;;14.20;99.90;;;;;;4590689;19;20509;-35
2022/09/23 07:54:47;;;;;;;8.20;6.45;;;14.20;99.90;;;;;;4591002;19;20019;-35
2022/09/23 07:56:19;;;;;;;7.38;6.10;;;14.20;99.90;;;;;;4590972;19;20018;-35
2022/09/23 07:57:51;;;;;;;8.07;6.20;;;14.30;99.90;;;;;;4590407;19;20019;-35
2022/09/23 07:59:22;;;;;;;7.25;6.03;;;14.20;99.90;;;;;;4590113;19;20355;-35
2022/09/23 08:00:54;;;;;;;7.65;5.78;;;14.30;99.90;;;;;;4588639;19;20366;-35
2022/09/23 08:02:25;;;;;;;7.88;5.63;;;14.30;99.90;;;;;;4589032;19;20018;-35
2022/09/23 08:03:57;;;;;;;6.68;5.05;;;14.30;99.90;;;;;;4588294;19;20014;-35
2022/09/23 08:05:28;;;;;;;8.03;5.17;;;14.30;99.90;;;;;;4591810;19;20337;-35
2022/09/23 08:07:01;;;;;;;6.80;5.05;;;14.40;99.90;;;;;;4592041;19;20074;-35